Date,TemperatureHighF,TemperatureAvgF,TemperatureLowF,DewpointHighF,DewpointAvgF,DewpointLowF,HumidityHigh,HumidityAvg,HumidityLow,PressureMaxIn,PressureMinIn,WindSpeedMaxMPH,WindSpeedAvgMPH,GustSpeedMaxMPH,PrecipitationSumIn
2013-10-12,71.0,70.9,70.0,66.0,65.9,65.0,85,84,83,30.22,30.19,0,0,0,0.00
2013-10-20,51.0,51.0,51.0,45.0,44.2,43.0,81,78,73,30.10,30.03,0,0,0,0.00
2013-10-21,53.0,52.1,51.0,45.0,45.0,45.0,81,78,75,30.10,28.67,0,0,1,0.00
2013-11-15,52.0,51.2,50.0,49.0,48.0,47.0,94,89,85,29.86,29.83,3,1,6,0.00
2013-11-16,70.0,61.3,51.0,65.0,55.7,-99.9,97,85,64,29.83,29.62,4,2,9,0.00
2013-11-17,76.0,66.3,51.0,66.0,45.3,14.0,91,54,19,30.05,29.56,6,3,11,0.00
2013-11-18,54.0,43.7,37.0,34.0,26.4,17.0,72,52,23,30.27,30.02,4,1,8,0.00
2013-11-19,59.0,50.2,42.0,27.0,21.2,13.0,54,33,20,30.27,30.08,2,1,5,0.00
2013-11-20,62.0,52.0,42.0,34.0,25.5,13.0,47,36,17,30.08,29.93,5,1,7,0.00
2013-11-21,56.0,50.8,44.0,51.0,47.4,35.0,98,90,45,30.23,30.02,3,1,8,0.54
2013-11-22,43.0,33.4,31.0,42.0,32.2,29.0,98,96,88,30.48,30.27,6,3,174,0.04
2013-11-25,34.0,33.5,33.0,30.0,29.2,28.0,87,84,80,30.20,30.14,2,1,6,0.00
2013-11-26,47.0,33.5,26.0,29.0,23.7,12.0,85,68,41,30.33,30.11,6,2,12,0.00
2013-11-27,39.0,23.5,16.0,12.0,7.8,5.0,63,52,26,30.39,30.27,5,1,8,0.00
2013-11-28,55.0,31.8,21.0,29.0,15.9,8.0,77,53,35,30.45,30.23,4,1,5,0.00
2013-11-29,59.0,32.8,23.0,32.0,21.6,15.0,92,68,27,30.51,30.29,3,0,5,0.00
2013-11-30,60.0,41.8,28.0,42.0,30.6,-99.9,96,68,47,30.33,30.11,4,1,7,0.00
2013-12-1,57.0,48.0,39.0,53.0,45.8,38.0,98,93,81,30.14,29.90,2,0,3,0.00
2013-12-2,65.0,45.3,38.0,50.0,41.6,37.0,98,90,46,29.90,29.68,2,0,3,0.00
2013-12-3,71.0,47.0,36.0,52.0,42.8,35.0,98,89,38,29.74,29.56,3,1,6,0.00
2013-12-4,64.0,45.5,33.0,52.0,40.8,30.0,98,87,48,29.99,29.56,5,2,9,0.00
2013-12-5,33.0,24.4,19.0,30.0,17.7,11.0,90,76,55,30.23,29.96,5,3,9,0.00
2013-12-6,23.0,18.2,15.0,16.0,10.8,3.0,87,73,58,30.51,30.17,4,2,8,0.00
2013-12-7,25.0,16.0,5.0,8.0,0.8,-99.9,60,54,42,30.57,30.23,4,2,7,0.00
2013-12-8,32.0,24.8,20.0,27.0,19.5,7.0,97,81,56,30.27,29.99,3,1,6,0.00
2013-12-9,30.0,23.8,20.0,24.0,15.4,9.0,90,71,47,30.33,30.14,4,2,6,0.00
2013-12-10,39.0,19.0,11.0,16.0,11.9,7.0,88,76,39,30.39,30.23,3,1,7,0.00
2013-12-11,40.0,20.8,13.0,25.0,12.8,8.0,96,73,43,30.60,30.27,4,1,6,0.00
2013-12-12,45.0,20.4,10.0,20.0,11.1,5.0,89,69,37,30.57,30.27,2,0,4,0.00
2013-12-13,40.0,33.2,24.0,35.0,28.5,17.0,98,84,62,30.27,29.87,3,0,6,0.04
2013-12-14,35.0,31.2,23.0,34.0,28.2,-99.9,98,92,82,30.23,29.83,6,2,13,0.04
2013-12-15,50.0,29.2,18.0,31.0,23.7,16.0,96,82,46,30.27,30.11,2,0,5,0.04
2013-12-16,64.0,42.8,36.0,37.0,30.4,28.0,78,64,35,30.17,30.05,2,1,5,0.13
2013-12-17,61.0,41.6,29.0,38.0,30.1,23.0,92,68,34,30.33,30.11,5,1,10,0.09
2013-12-18,65.0,41.6,26.0,36.0,29.8,23.0,91,67,34,30.29,29.99,5,1,8,0.00
2013-12-19,60.0,55.2,50.0,56.0,47.9,36.0,91,77,56,29.99,29.74,5,2,10,0.00
2013-12-20,63.0,45.4,33.0,59.0,43.3,32.0,98,93,78,29.93,29.74,4,2,10,0.20
2013-12-21,40.0,35.8,32.0,39.0,33.9,-99.9,98,97,98,29.80,29.50,4,1,8,1.70
2013-12-22,34.0,28.8,25.0,34.0,25.5,20.0,98,87,76,30.33,29.71,6,3,9,0.04
2013-12-23,33.0,23.1,15.0,21.0,17.5,11.0,90,79,56,30.57,30.33,3,2,6,0.00
2013-12-24,44.0,24.0,13.0,26.0,17.0,10.0,90,77,48,30.54,30.23,3,1,6,0.00
2013-12-25,47.0,29.8,22.0,31.0,24.8,20.0,94,83,52,30.39,30.23,3,0,6,0.00
2013-12-26,54.0,29.3,20.0,32.0,22.1,18.0,98,78,37,30.42,30.29,3,0,6,0.00
2013-12-27,60.0,33.2,25.0,32.0,24.0,21.0,93,73,35,30.42,30.29,3,0,5,0.00
2013-12-28,59.0,34.8,24.0,34.0,23.1,-99.9,91,68,36,30.36,29.93,2,0,5,0.00
2013-12-29,42.0,30.0,20.0,38.0,22.7,10.0,90,74,65,30.29,29.93,6,2,10,0.00
2013-12-30,41.0,22.6,14.0,21.0,14.4,7.0,86,71,43,30.36,30.20,2,1,4,0.00
2013-12-31,59.0,31.2,18.0,26.0,19.1,15.0,91,66,28,30.39,30.17,4,1,7,0.00
2014-1-1,58.0,37.8,24.0,33.0,23.5,15.0,82,57,36,30.20,29.87,7,2,11,0.00
2014-1-2,29.0,17.1,10.0,17.0,5.7,-1.0,81,61,44,30.48,30.11,6,2,12,0.00